createdAt,value
2018-06-05T00:02:23.016Z,11.43
2018-06-05T00:04:52.102Z,11.60
2018-06-05T00:07:21.378Z,10.37
2018-06-05T00:09:50.082Z,9.43
2018-06-05T00:12:19.628Z,11.17
2018-06-05T00:14:48.388Z,9.90
2018-06-05T00:17:17.536Z,8.80
2018-06-05T00:19:47.767Z,8.90
2018-06-05T00:22:16.878Z,10.80
2018-06-05T00:24:45.966Z,10.23
2018-06-05T00:27:15.179Z,8.97
2018-06-05T00:29:44.224Z,9.30
2018-06-05T00:32:13.442Z,11.27
2018-06-05T00:34:42.661Z,11.73
2018-06-05T00:37:11.757Z,9.30
2018-06-05T00:39:40.833Z,10.87
2018-06-05T00:42:09.869Z,11.80
2018-06-05T00:44:39.570Z,10.80
2018-06-05T00:47:08.715Z,9.70
2018-06-05T00:49:38.171Z,11.57
2018-06-05T00:52:08.812Z,10.30
2018-06-05T00:54:38.100Z,11.00
2018-06-05T00:57:07.145Z,10.20
2018-06-05T00:59:36.432Z,13.10
2018-06-05T01:02:05.494Z,14.93
2018-06-05T01:04:34.467Z,10.50
2018-06-05T01:07:03.489Z,10.17
2018-06-05T01:09:32.591Z,8.97
2018-06-05T01:12:01.633Z,8.97
2018-06-05T01:14:30.424Z,9.67
2018-06-05T01:16:59.440Z,9.10
2018-06-05T01:19:28.183Z,11.03
2018-06-05T01:21:57.252Z,9.63
2018-06-05T01:24:26.333Z,9.70
2018-06-05T01:26:55.477Z,9.83
2018-06-05T01:29:24.568Z,9.60
2018-06-05T01:31:53.592Z,12.50
2018-06-05T01:34:22.614Z,11.10
2018-06-05T01:36:51.631Z,8.87
2018-06-05T01:39:20.612Z,11.33
2018-06-05T01:41:49.495Z,13.53
2018-06-05T01:44:18.447Z,12.23
2018-06-05T01:46:47.470Z,10.43
2018-06-05T01:49:16.384Z,10.67
2018-06-05T01:51:45.538Z,14.83
2018-06-05T01:54:14.497Z,8.33
2018-06-05T01:56:43.544Z,9.30
2018-06-05T01:59:12.538Z,8.67
2018-06-05T02:01:41.549Z,10.33
2018-06-05T02:04:10.584Z,10.10
2018-06-05T02:06:39.615Z,7.80
2018-06-05T02:09:08.515Z,11.70
2018-06-05T02:11:37.203Z,10.20
2018-06-05T02:14:06.031Z,10.90
2018-06-05T02:16:35.457Z,9.43
2018-06-05T02:19:04.166Z,10.10
2018-06-05T02:21:32.922Z,11.40
2018-06-05T02:24:01.623Z,9.73
2018-06-05T02:26:30.275Z,11.13
2018-06-05T02:28:59.142Z,12.97
2018-06-05T02:31:27.921Z,9.53
2018-06-05T02:33:56.645Z,13.23
2018-06-05T02:36:25.573Z,9.47
2018-06-05T02:38:54.348Z,23.93
2018-06-05T02:41:23.012Z,16.27
2018-06-05T02:43:51.807Z,11.30
2018-06-05T02:46:20.744Z,15.37
2018-06-05T02:48:49.871Z,11.00
2018-06-05T02:51:18.830Z,11.90
2018-06-05T02:53:48.154Z,14.43
2018-06-05T02:56:17.183Z,12.83
2018-06-05T02:58:45.997Z,11.73
2018-06-05T03:01:14.883Z,10.53
2018-06-05T03:03:43.572Z,10.20
2018-06-05T03:06:12.397Z,10.00
2018-06-05T03:08:46.912Z,10.90
2018-06-05T03:11:16.686Z,10.10
2018-06-05T03:13:45.467Z,12.00
2018-06-05T03:16:14.214Z,10.63
2018-06-05T03:18:42.986Z,13.20
2018-06-05T03:21:11.946Z,10.90
2018-06-05T03:23:41.101Z,11.33
2018-06-05T03:26:10.186Z,12.77
2018-06-05T03:28:39.188Z,9.93
2018-06-05T03:31:08.317Z,10.70
2018-06-05T03:33:37.429Z,13.43
2018-06-05T03:36:06.491Z,10.00
2018-06-05T03:38:35.305Z,11.60
2018-06-05T03:41:04.389Z,12.77
2018-06-05T03:43:33.269Z,11.10
2018-06-05T03:46:02.269Z,16.60
2018-06-05T03:48:31.311Z,12.63
2018-06-05T03:51:00.118Z,14.03
2018-06-05T03:53:29.080Z,13.80
2018-06-05T03:55:57.876Z,11.77
2018-06-05T03:58:26.553Z,15.83
2018-06-05T04:00:55.297Z,9.97
2018-06-05T04:03:23.987Z,27.27
2018-06-05T04:05:53.121Z,30.30
2018-06-05T04:08:22.129Z,19.40
2018-06-05T04:10:51.227Z,15.10
2018-06-05T04:13:20.097Z,11.57
2018-06-05T04:15:49.123Z,12.53
2018-06-05T04:18:18.228Z,14.50
2018-06-05T04:20:47.189Z,10.90
2018-06-05T04:23:16.169Z,12.60
2018-06-05T04:25:45.031Z,9.73
2018-06-05T04:28:14.171Z,12.37
2018-06-05T04:30:43.149Z,12.60
2018-06-05T04:33:12.115Z,13.17
2018-06-05T04:35:41.341Z,11.07
2018-06-05T04:38:10.436Z,21.93
2018-06-05T04:40:39.183Z,14.40
2018-06-05T04:43:07.970Z,11.93
2018-06-05T04:45:36.748Z,17.70
2018-06-05T04:48:05.916Z,12.90
2018-06-05T04:50:34.911Z,14.30
2018-06-05T04:53:03.901Z,17.70
2018-06-05T04:55:32.750Z,12.77
2018-06-05T04:58:01.823Z,12.57
2018-06-05T05:00:30.765Z,11.43
2018-06-05T05:03:00.414Z,12.63
2018-06-05T05:05:29.467Z,11.37
2018-06-05T05:07:58.503Z,14.50
2018-06-05T05:10:27.352Z,16.60
2018-06-05T05:12:56.094Z,14.63
2018-06-05T05:15:24.933Z,15.43
2018-06-05T05:17:53.721Z,12.63
2018-06-05T05:20:22.755Z,11.70
2018-06-05T05:22:51.726Z,18.73
2018-06-05T05:25:20.861Z,13.87
2018-06-05T05:27:50.636Z,12.37
2018-06-05T05:30:19.968Z,12.37
2018-06-05T05:32:49.712Z,13.47
2018-06-05T05:35:18.701Z,12.90
2018-06-05T05:37:47.769Z,11.90
2018-06-05T05:40:16.946Z,14.80
2018-06-05T05:42:46.363Z,12.57
2018-06-05T05:45:15.352Z,12.40
2018-06-05T05:47:44.363Z,13.03
2018-06-05T05:50:13.746Z,12.57
2018-06-05T05:52:42.492Z,12.87
2018-06-05T05:55:11.307Z,13.77
2018-06-05T05:57:40.183Z,14.40
2018-06-05T06:00:09.689Z,15.00
2018-06-05T06:02:38.519Z,16.60
2018-06-05T06:05:07.351Z,13.83
2018-06-05T06:07:37.188Z,14.90
2018-06-05T06:10:05.931Z,18.50
2018-06-05T06:12:35.020Z,16.57
2018-06-05T06:15:04.184Z,16.67
2018-06-05T06:17:33.387Z,15.30
2018-06-05T06:20:06.801Z,18.17
2018-06-05T06:22:35.869Z,17.83
2018-06-05T06:25:05.253Z,13.80
2018-06-05T06:27:35.872Z,15.23
2018-06-05T06:30:05.901Z,14.77
2018-06-05T06:32:35.590Z,14.73
2018-06-05T06:35:05.222Z,13.73
2018-06-05T06:37:37.814Z,12.97
2018-06-05T06:40:07.933Z,17.13
2018-06-05T06:42:36.798Z,13.97
2018-06-05T06:45:06.846Z,13.17
2018-06-05T06:47:35.748Z,11.83
2018-06-05T06:50:06.043Z,13.37
2018-06-05T06:52:35.050Z,12.23
2018-06-05T06:55:03.899Z,12.20
2018-06-05T06:57:33.993Z,12.67
2018-06-05T07:00:03.964Z,11.30
2018-06-05T07:02:33.109Z,9.53
2018-06-05T07:05:02.271Z,10.87
2018-06-05T07:07:32.119Z,8.80
2018-06-05T07:10:00.992Z,8.37
2018-06-05T07:12:31.408Z,8.90
2018-06-05T07:15:00.549Z,9.10
2018-06-05T07:17:31.103Z,11.00
2018-06-05T07:20:02.396Z,8.90
2018-06-05T07:22:31.300Z,8.87
2018-06-05T07:25:04.970Z,8.87
2018-06-05T07:27:36.454Z,11.10
2018-06-05T07:30:05.746Z,11.00
2018-06-05T07:32:37.664Z,10.20
2018-06-05T07:35:38.005Z,9.80
2018-06-05T07:38:19.333Z,11.00
2018-06-05T07:40:49.879Z,10.33
2018-06-05T07:43:26.382Z,10.47
2018-06-05T07:45:58.120Z,9.57
2018-06-05T07:48:33.391Z,9.80
2018-06-05T07:51:15.454Z,9.07
2018-06-05T07:55:02.012Z,9.77
2018-06-05T07:57:48.252Z,10.00
2018-06-05T08:00:34.892Z,8.67
2018-06-05T08:03:11.398Z,8.50
2018-06-05T08:24:47.182Z,9.70
2018-06-05T08:27:32.367Z,10.60
2018-06-05T08:37:16.491Z,35.90
2018-06-05T08:40:25.419Z,15.17
2018-06-05T08:43:01.048Z,13.33
2018-06-05T08:45:41.297Z,11.97
2018-06-05T08:48:37.172Z,12.07
2018-06-05T08:54:16.035Z,14.97
2018-06-05T08:57:04.193Z,13.03
2018-06-05T08:59:44.473Z,13.60
2018-06-05T09:05:41.779Z,25.13
2018-06-05T09:08:23.399Z,13.40
2018-06-05T09:16:53.271Z,13.60
2018-06-05T09:19:59.942Z,14.70
2018-06-05T09:22:41.259Z,15.20
2018-06-05T09:32:08.854Z,19.10
2018-06-05T09:35:25.394Z,15.90
2018-06-05T09:40:06.650Z,14.07
2018-06-05T09:49:04.075Z,13.17
2018-06-05T10:07:41.408Z,11.80
2018-06-05T10:10:34.093Z,13.50
2018-06-05T10:13:36.763Z,22.20
2018-06-05T10:16:09.291Z,20.10
2018-06-05T10:22:02.589Z,19.67
2018-06-05T10:24:36.337Z,25.23
2018-06-05T10:27:09.113Z,22.90
2018-06-05T10:29:43.900Z,21.73
2018-06-05T10:35:16.892Z,18.73
2018-06-05T10:38:08.136Z,19.43
2018-06-05T10:40:43.368Z,27.10
2018-06-05T10:43:21.596Z,24.00
2018-06-05T10:46:32.185Z,22.80
2018-06-05T10:49:35.121Z,20.70
2018-06-05T10:52:10.050Z,21.87
2018-06-05T10:54:40.126Z,29.17
2018-06-05T10:57:13.635Z,20.67
2018-06-05T10:59:42.832Z,19.40
2018-06-05T11:02:13.076Z,18.13
2018-06-05T11:04:42.144Z,16.13
2018-06-05T11:07:11.057Z,17.37
2018-06-05T11:09:40.228Z,23.47
2018-06-05T11:12:09.328Z,19.10
2018-06-05T11:14:38.525Z,17.17
2018-06-05T11:17:07.660Z,16.43
2018-06-05T11:19:37.611Z,16.50
2018-06-05T11:22:07.929Z,15.33
2018-06-05T11:24:39.373Z,13.67
2018-06-05T11:27:09.205Z,14.40
2018-06-05T11:29:41.894Z,16.07
2018-06-05T11:32:14.904Z,16.00
2018-06-05T11:34:46.710Z,18.23
2018-06-05T11:37:18.104Z,18.57
2018-06-05T11:39:49.080Z,20.03
2018-06-05T11:42:19.102Z,16.07
2018-06-05T11:44:48.782Z,16.80
2018-06-05T11:47:18.076Z,19.53
2018-06-05T11:49:48.010Z,15.50
2018-06-05T11:52:17.208Z,17.93
2018-06-05T11:55:01.204Z,17.10
2018-06-05T11:57:31.460Z,15.27
2018-06-05T12:00:17.486Z,19.53
2018-06-05T12:02:50.517Z,14.77
2018-06-05T12:05:22.513Z,16.83
2018-06-05T12:07:58.616Z,16.70
2018-06-05T12:10:30.350Z,15.80
2018-06-05T12:13:03.703Z,15.83
2018-06-05T12:15:32.837Z,15.30
2018-06-05T12:18:05.687Z,15.40
2018-06-05T12:20:40.371Z,16.77
2018-06-05T12:23:14.318Z,16.47
2018-06-05T12:25:45.459Z,15.80
2018-06-05T12:28:16.208Z,16.43
2018-06-05T12:30:46.492Z,16.20
2018-06-05T12:33:15.670Z,18.30
2018-06-05T12:35:48.381Z,19.60
2018-06-05T12:38:19.295Z,16.77
2018-06-05T12:40:50.247Z,14.70
2018-06-05T12:43:19.833Z,16.73
2018-06-05T12:45:55.623Z,16.73
2018-06-05T12:48:32.700Z,15.20
2018-06-05T12:51:06.786Z,16.07
2018-06-05T12:53:47.512Z,16.47
2018-06-05T12:56:30.946Z,15.00
2018-06-05T12:59:06.314Z,15.30
2018-06-05T13:01:48.315Z,16.30
2018-06-05T13:04:25.767Z,16.27
2018-06-05T13:07:00.659Z,17.27
2018-06-05T13:09:48.698Z,18.50
2018-06-05T13:12:18.731Z,14.43
2018-06-05T13:14:53.345Z,17.23
2018-06-05T13:17:25.744Z,15.93
2018-06-05T13:19:57.185Z,16.57
2018-06-05T13:22:26.117Z,16.83
2018-06-05T13:24:55.462Z,16.27
2018-06-05T13:27:25.903Z,14.97
2018-06-05T13:29:55.820Z,16.33
2018-06-05T13:32:27.498Z,15.00
2018-06-05T13:34:56.441Z,15.37
2018-06-05T13:37:25.411Z,15.07
2018-06-05T13:39:55.466Z,14.20
2018-06-05T13:42:33.155Z,13.07
2018-06-05T13:45:04.983Z,14.00
2018-06-05T13:47:51.440Z,13.37
2018-06-05T13:50:24.092Z,12.97
2018-06-05T13:53:03.069Z,12.27
2018-06-05T13:55:51.114Z,12.93
2018-06-05T14:01:02.805Z,15.17
2018-06-05T14:03:35.523Z,14.93
2018-06-05T14:06:10.797Z,18.23
2018-06-05T14:09:05.066Z,13.93
2018-06-05T14:11:40.899Z,13.03
2018-06-05T14:15:27.974Z,13.33
2018-06-05T14:18:25.580Z,11.80
2018-06-05T14:24:20.427Z,13.03
2018-06-05T14:39:12.472Z,13.83
2018-06-05T14:42:24.391Z,13.40
2018-06-05T14:49:52.288Z,14.97
2018-06-05T14:52:47.772Z,15.50
2018-06-05T14:55:30.895Z,15.63
2018-06-05T14:58:21.973Z,12.53
2018-06-05T15:01:24.561Z,12.93
2018-06-05T15:04:38.577Z,14.33
2018-06-05T15:10:42.485Z,13.00
2018-06-05T15:13:21.343Z,16.50
2018-06-05T15:16:07.267Z,14.77
2018-06-05T15:18:58.761Z,14.97
2018-06-05T15:31:28.715Z,18.00
2018-06-05T15:34:26.287Z,16.57
2018-06-05T15:37:15.546Z,16.23
2018-06-05T15:47:42.828Z,15.97
2018-06-05T15:50:36.424Z,15.60
2018-06-05T15:53:33.718Z,15.37
2018-06-05T15:56:15.779Z,14.77
2018-06-05T16:01:42.446Z,16.67
2018-06-05T16:04:57.285Z,21.90
2018-06-05T16:14:00.044Z,18.97
2018-06-05T16:16:52.755Z,14.23
2018-06-05T16:22:36.045Z,15.90
2018-06-05T16:25:31.564Z,15.73
2018-06-05T16:28:21.790Z,11.23
2018-06-05T16:31:13.467Z,14.90
2018-06-05T16:34:19.432Z,12.80
2018-06-05T16:37:19.765Z,13.67
2018-06-05T16:41:53.190Z,16.00
2018-06-05T16:44:37.159Z,12.83
2018-06-05T16:53:37.864Z,14.57
2018-06-05T16:57:18.164Z,14.50
2018-06-05T17:03:34.903Z,15.10
2018-06-05T17:19:28.895Z,14.33
2018-06-05T17:23:04.870Z,14.27
2018-06-05T17:33:39.095Z,26.90
2018-06-05T17:36:42.825Z,18.80
2018-06-05T17:39:42.971Z,20.13
2018-06-05T17:45:32.694Z,19.90
2018-06-05T17:48:24.856Z,18.47
2018-06-05T17:51:15.795Z,15.17
2018-06-05T17:55:15.519Z,17.83
2018-06-05T18:01:03.552Z,19.57
2018-06-05T18:10:59.811Z,21.53
2018-06-05T18:17:07.076Z,23.60
2018-06-05T18:20:00.267Z,19.37
2018-06-05T18:22:52.094Z,21.33
2018-06-05T18:25:47.002Z,18.77
2018-06-05T18:28:29.510Z,20.80
2018-06-05T18:31:20.566Z,20.73
2018-06-05T18:34:07.117Z,24.07
2018-06-05T18:36:57.293Z,29.00
2018-06-05T18:40:14.540Z,21.10
2018-06-05T18:43:04.995Z,21.97
2018-06-05T18:45:47.444Z,19.77
2018-06-05T18:51:49.994Z,20.73
2018-06-05T18:54:39.241Z,18.40
2018-06-05T18:57:23.776Z,20.23
2018-06-05T19:00:13.932Z,22.33
2018-06-05T19:05:55.059Z,21.17
2018-06-05T19:08:32.679Z,21.90
2018-06-05T19:11:18.771Z,20.20
2018-06-05T19:14:18.843Z,23.83
2018-06-05T19:17:34.793Z,21.90
2018-06-05T19:20:26.874Z,24.17
2018-06-05T19:23:01.886Z,22.23
2018-06-05T19:25:47.943Z,23.03
2018-06-05T19:28:25.019Z,23.23
2018-06-05T19:31:01.762Z,22.63
2018-06-05T19:33:40.611Z,26.00
2018-06-05T19:36:24.100Z,25.53
2018-06-05T19:39:01.906Z,23.77
2018-06-05T19:41:35.443Z,26.73
2018-06-05T19:44:09.034Z,23.47
2018-06-05T19:46:41.669Z,34.33
2018-06-05T19:49:20.392Z,31.43
2018-06-05T19:52:05.309Z,27.30
2018-06-05T19:54:38.071Z,22.63
2018-06-05T19:57:12.879Z,21.23
2018-06-05T19:59:44.378Z,23.83
2018-06-05T20:02:20.846Z,26.90
2018-06-05T20:04:53.206Z,35.30
2018-06-05T20:07:22.208Z,30.20
2018-06-05T20:09:55.720Z,29.33
2018-06-05T20:12:28.401Z,32.47
2018-06-05T20:15:03.002Z,29.87
2018-06-05T20:17:33.853Z,26.63
2018-06-05T20:20:04.688Z,23.43
2018-06-05T20:22:39.028Z,29.57
2018-06-05T20:25:10.949Z,30.47
2018-06-05T20:27:45.606Z,27.83
2018-06-05T20:30:17.353Z,22.90
2018-06-05T20:32:48.988Z,20.00
2018-06-05T20:35:25.807Z,17.73
2018-06-05T20:37:56.336Z,22.03
2018-06-05T20:40:27.867Z,18.30
2018-06-05T20:43:06.522Z,19.70
2018-06-05T20:45:36.628Z,27.63
2018-06-05T20:48:06.991Z,25.27
2018-06-05T20:50:39.147Z,23.03
2018-06-05T20:53:09.013Z,31.00
2018-06-05T20:55:38.389Z,23.03
2018-06-05T20:58:08.695Z,23.53
2018-06-05T21:00:38.524Z,27.83
2018-06-05T21:03:11.653Z,25.30
2018-06-05T21:05:44.465Z,25.53
2018-06-05T21:08:15.608Z,20.70
2018-06-05T21:10:47.609Z,19.80
2018-06-05T21:13:20.207Z,19.03
2018-06-05T21:15:52.419Z,21.10
2018-06-05T21:18:22.798Z,20.30
2018-06-05T21:20:53.032Z,22.93
2018-06-05T21:23:22.237Z,30.23
2018-06-05T21:25:54.329Z,21.40
2018-06-05T21:28:25.666Z,28.37
2018-06-05T21:30:58.811Z,27.47
2018-06-05T21:33:29.164Z,25.43
2018-06-05T21:36:00.484Z,23.10
2018-06-05T21:38:29.561Z,24.03
2018-06-05T21:41:00.426Z,19.07
2018-06-05T21:43:29.709Z,20.53
2018-06-05T21:46:01.002Z,26.47
2018-06-05T21:48:31.035Z,23.40
2018-06-05T21:51:00.198Z,17.83
2018-06-05T21:53:29.020Z,21.40
2018-06-05T21:55:57.911Z,18.47
2018-06-05T21:58:26.799Z,18.40
2018-06-05T22:00:56.447Z,18.57
2018-06-05T22:03:25.577Z,17.53
2018-06-05T22:05:56.572Z,18.30
2018-06-05T22:08:26.198Z,22.33
2018-06-05T22:10:55.060Z,23.37
2018-06-05T22:13:24.201Z,24.23
2018-06-05T22:15:53.311Z,23.43
2018-06-05T22:18:22.864Z,21.53
2018-06-05T22:20:51.816Z,27.37
2018-06-05T22:23:20.653Z,24.70
2018-06-05T22:25:49.712Z,22.30
2018-06-05T22:28:18.831Z,21.40
2018-06-05T22:30:50.658Z,18.43
2018-06-05T22:33:22.076Z,19.40
2018-06-05T22:35:52.705Z,19.73
2018-06-05T22:38:21.724Z,19.57
2018-06-05T22:40:50.653Z,18.10
2018-06-05T22:43:20.697Z,19.10
2018-06-05T22:45:49.421Z,17.80
2018-06-05T22:48:19.156Z,19.97
2018-06-05T22:50:47.997Z,20.00
2018-06-05T22:53:16.839Z,24.97
2018-06-05T22:55:45.748Z,23.40
2018-06-05T22:58:15.441Z,25.17
2018-06-05T23:00:45.564Z,23.57
2018-06-05T23:03:14.911Z,21.93
2018-06-05T23:05:44.146Z,25.60
2018-06-05T23:08:14.262Z,24.07
2018-06-05T23:10:43.777Z,24.17
2018-06-05T23:13:12.774Z,19.57
2018-06-05T23:15:41.676Z,22.10
2018-06-05T23:18:11.165Z,18.10
2018-06-05T23:20:40.390Z,19.23
2018-06-05T23:23:10.571Z,19.23
2018-06-05T23:25:40.772Z,24.63
2018-06-05T23:28:12.049Z,25.20
2018-06-05T23:30:40.836Z,29.03
2018-06-05T23:33:09.897Z,28.27
2018-06-05T23:35:38.999Z,25.60
2018-06-05T23:38:08.229Z,30.07
2018-06-05T23:40:37.392Z,32.20
2018-06-05T23:43:07.067Z,31.07
2018-06-05T23:45:36.638Z,33.20
2018-06-05T23:48:05.899Z,29.10
2018-06-05T23:50:35.225Z,23.27
2018-06-05T23:53:05.423Z,19.30
2018-06-05T23:55:34.486Z,17.53
2018-06-05T23:58:05.343Z,20.07
